Time;durP1;ratioP1;P1;durP2;ratioP2;P2;SDS_P1;SDS_P2;PMS_P1;PMS_P2;Temp;Humidity;BMP_temperature;BMP_pressure;BME280_temperature;BME280_humidity;BME280_pressure;Samples;Min_cycle;Max_cycle;Signal;HPM_P1;HPM_P2
2023/12/30 00:00:24;;;;;;;5.03;1.83;;;;;;;;;;5104731;28;20024;-62
2023/12/30 00:02:51;;;;;;;7.35;1.85;;;;;;;;;;5106207;28;20430;-62
2023/12/30 00:05:17;;;;;;;4.93;2.17;;;;;;;;;;5109139;28;20097;-62
2023/12/30 00:07:43;;;;;;;;;;;;;;;;;;5109437;28;20408;-69
2023/12/30 00:10:09;;;;;;;6.18;2.00;;;;;;;;;;5108277;28;19915;-62
2023/12/30 00:12:35;;;;;;;5.70;1.95;;;;;;;;;;5108651;28;20058;-62
2023/12/30 00:15:02;;;;;;;;;;;;;;;;;;5109539;28;20032;-63
2023/12/30 00:17:28;;;;;;;6.85;1.77;;;;;;;;;;5106424;28;19928;-62
2023/12/30 00:19:54;;;;;;;;;;;;;;;;;;5109419;28;20024;-63
2023/12/30 00:22:20;;;;;;;4.57;1.80;;;;;;;;;;5108579;28;19915;-65
2023/12/30 00:24:47;;;;;;;8.90;1.52;;;;;;;;;;5109554;28;20315;-60
2023/12/30 00:27:13;;;;;;;7.60;1.70;;;;;;;;;;5109686;28;20024;-65
2023/12/30 00:29:39;;;;;;;;;;;;;;;;;;5102860;28;20023;-64
2023/12/30 00:32:05;;;;;;;5.05;1.40;;;;;;;;;;5109376;28;19911;-64
2023/12/30 00:34:34;;;;;;;3.45;1.20;;;;;;;;;;5109106;28;20063;-64
2023/12/30 00:37:00;;;;;;;4.28;1.30;;;;;;;;;;5108128;28;20113;-64
2023/12/30 00:39:26;;;;;;;5.40;1.45;;;;;;;;;;5098153;28;20028;-64
2023/12/30 00:41:52;;;;;;;6.13;1.60;;;;;;;;;;5096172;28;20032;-64
2023/12/30 00:44:18;;;;;;;;;;;;;;;;;;5101598;28;20111;-64
2023/12/30 00:46:44;;;;;;;3.72;1.33;;;;;;;;;;5105390;28;20381;-64
2023/12/30 00:49:11;;;;;;;;;;;;;;;;;;5110024;28;20411;-62
2023/12/30 00:51:37;;;;;;;4.50;1.27;;;;;;;;;;5108983;28;19912;-64
2023/12/30 00:54:03;;;;;;;6.70;1.33;;;;;;;;;;5109547;28;20101;-64
2023/12/30 00:56:29;;;;;;;4.57;1.27;;;;;;;;;;5108810;28;20053;-65
2023/12/30 00:58:55;;;;;;;;;;;;;;;;;;5110143;28;20089;-65
2023/12/30 01:01:21;;;;;;;3.55;1.15;;;;;;;;;;5106893;28;19907;-64
2023/12/30 01:03:48;;;;;;;;;;;;;;;;;;5109678;28;20489;-64
2023/12/30 01:06:14;;;;;;;3.00;1.20;;;;;;;;;;5098677;28;20402;-63
2023/12/30 01:08:40;;;;;;;4.32;1.20;;;;;;;;;;5093828;28;20035;-64
2023/12/30 01:11:06;;;;;;;;;;;;;;;;;;5096479;28;20040;-63
2023/12/30 01:13:32;;;;;;;8.13;1.38;;;;;;;;;;5095382;28;20318;-65
2023/12/30 01:15:58;;;;;;;;;;;;;;;;;;5095360;28;20059;-64
2023/12/30 01:18:25;;;;;;;8.45;1.80;;;;;;;;;;5088345;28;19985;-64
2023/12/30 01:20:51;;;;;;;8.55;1.48;;;;;;;;;;5090622;28;20028;-64
2023/12/30 01:23:17;;;;;;;;;;;;;;;;;;5095782;28;20020;-63
2023/12/30 01:25:43;;;;;;;3.42;1.15;;;;;;;;;;5081608;28;20346;-63
2023/12/30 01:28:08;;;;;;;;;;;;;;;;;;5094819;28;20445;-65
2023/12/30 01:30:38;;;;;;;5.93;1.58;;;;;;;;;;5084252;28;19955;-63
2023/12/30 01:33:04;;;;;;;4.53;1.05;;;;;;;;;;5094464;28;20032;-65
2023/12/30 01:35:30;;;;;;;5.93;1.20;;;;;;;;;;5093884;28;20032;-66
2023/12/30 01:37:56;;;;;;;;;;;;;;;;;;5095874;28;20028;-63
2023/12/30 01:40:22;;;;;;;4.70;1.30;;;;;;;;;;5094670;28;19973;-62
2023/12/30 01:42:48;;;;;;;;;;;;;;;;;;5095357;28;20055;-62
2023/12/30 01:45:14;;;;;;;12.30;2.78;;;;;;;;;;5094632;28;19915;-62
2023/12/30 01:47:40;;;;;;;;;;;;;;;;;;5095259;28;20031;-62
2023/12/30 01:50:07;;;;;;;10.20;2.25;;;;;;;;;;5094815;28;19908;-62
2023/12/30 01:52:35;;;;;;;8.20;1.52;;;;;;;;;;5094807;28;20036;-62
2023/12/30 01:55:02;;;;;;;6.45;1.67;;;;;;;;;;5094472;28;20093;-64
2023/12/30 01:57:28;;;;;;;8.77;1.60;;;;;;;;;;5094467;28;20021;-64
2023/12/30 01:59:54;;;;;;;;;;;;;;;;;;5094951;28;20035;-62
2023/12/30 02:02:21;;;;;;;6.72;1.27;;;;;;;;;;5094490;28;19908;-62
2023/12/30 02:04:47;;;;;;;4.80;1.40;;;;;;;;;;5094489;28;20153;-62
2023/12/30 02:07:13;;;;;;;10.48;1.33;;;;;;;;;;5093397;28;20055;-64
2023/12/30 02:09:39;;;;;;;;;;;;;;;;;;5094505;28;20047;-64
2023/12/30 02:12:05;;;;;;;5.65;1.73;;;;;;;;;;5094445;28;20365;-64
2023/12/30 02:14:33;;;;;;;5.43;1.23;;;;;;;;;;5094178;28;20073;-64
2023/12/30 02:16:59;;;;;;;4.32;1.10;;;;;;;;;;5093446;28;20113;-64
2023/12/30 02:19:25;;;;;;;5.90;1.30;;;;;;;;;;5094108;28;20020;-64
2023/12/30 02:21:51;;;;;;;;;;;;;;;;;;5094972;28;20024;-64
2023/12/30 02:24:17;;;;;;;2.92;1.33;;;;;;;;;;5093854;28;19946;-62
2023/12/30 02:26:43;;;;;;;4.75;1.20;;;;;;;;;;5093966;28;20024;-62
2023/12/30 02:29:09;;;;;;;3.80;0.90;;;;;;;;;;5094022;28;20024;-62
2023/12/30 02:31:35;;;;;;;;;;;;;;;;;;5094537;28;20374;-62
2023/12/30 02:34:01;;;;;;;5.15;1.15;;;;;;;;;;5093698;28;19915;-64
2023/12/30 02:36:27;;;;;;;3.97;1.30;;;;;;;;;;5094030;28;20042;-62
2023/12/30 02:38:53;;;;;;;;;;;;;;;;;;5094341;28;20469;-65
2023/12/30 02:41:19;;;;;;;5.18;1.17;;;;;;;;;;5094195;28;19956;-65
2023/12/30 02:43:45;;;;;;;;;;;;;;;;;;5092988;28;20421;-65
2023/12/30 02:46:11;;;;;;;3.05;1.15;;;;;;;;;;5094171;28;19904;-64
2023/12/30 02:48:37;;;;;;;7.20;1.23;;;;;;;;;;5092532;28;20032;-64
2023/12/30 02:51:03;;;;;;;;;;;;;;;;;;5094354;28;20028;-64
2023/12/30 02:53:29;;;;;;;8.80;1.17;;;;;;;;;;5093093;28;20006;-64
2023/12/30 02:55:56;;;;;;;5.45;1.13;;;;;;;;;;5094024;28;20028;-64
2023/12/30 02:58:22;;;;;;;8.90;0.98;;;;;;;;;;5093558;28;20043;-64
2023/12/30 03:00:48;;;;;;;3.67;1.02;;;;;;;;;;5093724;28;20383;-64
2023/12/30 03:03:14;;;;;;;;;;;;;;;;;;5092594;28;20478;-65
2023/12/30 03:05:40;;;;;;;4.88;1.17;;;;;;;;;;5093440;28;19904;-65
2023/12/30 03:08:06;;;;;;;4.25;1.13;;;;;;;;;;5093260;28;20028;-65
2023/12/30 03:10:32;;;;;;;;;;;;;;;;;;5093622;28;20024;-65
2023/12/30 03:12:58;;;;;;;5.70;1.20;;;;;;;;;;5093205;28;19982;-65
2023/12/30 03:15:24;;;;;;;2.75;0.77;;;;;;;;;;5093479;28;20366;-65
2023/12/30 03:17:50;;;;;;;;;;;;;;;;;;5092075;28;20369;-65
2023/12/30 03:20:16;;;;;;;3.17;0.90;;;;;;;;;;5088292;28;19910;-65
2023/12/30 03:22:42;;;;;;;;;;;;;;;;;;5093126;28;20032;-64
2023/12/30 03:25:08;;;;;;;2.35;0.70;;;;;;;;;;5092065;28;20398;-66
2023/12/30 03:27:34;;;;;;;;;;;;;;;;;;5093407;28;20027;-65
2023/12/30 03:30:00;;;;;;;10.02;1.75;;;;;;;;;;5091775;28;20288;-65
2023/12/30 03:32:28;;;;;;;7.20;1.20;;;;;;;;;;5093031;28;20423;-64
2023/12/30 03:34:54;;;;;;;2.88;0.88;;;;;;;;;;5093033;28;20089;-65
2023/12/30 03:37:20;;;;;;;4.47;1.05;;;;;;;;;;5091568;28;20189;-64
2023/12/30 03:39:46;;;;;;;9.80;1.42;;;;;;;;;;5092621;28;20024;-65
2023/12/30 03:42:12;;;;;;;;;;;;;;;;;;5093191;28;20082;-65
2023/12/30 03:44:38;;;;;;;3.63;0.95;;;;;;;;;;5092864;28;19904;-65
2023/12/30 03:47:04;;;;;;;5.50;1.00;;;;;;;;;;5092848;28;20020;-66
2023/12/30 03:49:30;;;;;;;;;;;;;;;;;;5093544;28;20024;-64
2023/12/30 03:51:56;;;;;;;5.53;1.50;;;;;;;;;;5092701;28;19904;-64
2023/12/30 03:54:22;;;;;;;3.13;0.73;;;;;;;;;;5092664;28;20126;-65
2023/12/30 03:56:48;;;;;;;;;;;;;;;;;;5093036;28;20024;-64
2023/12/30 03:59:14;;;;;;;7.68;1.48;;;;;;;;;;5093054;28;20371;-64
2023/12/30 04:01:41;;;;;;;5.97;0.90;;;;;;;;;;5092390;28;20020;-65
2023/12/30 04:04:07;;;;;;;2.55;0.65;;;;;;;;;;5092909;28;20031;-64
2023/12/30 04:06:33;;;;;;;7.70;1.33;;;;;;;;;;5092572;28;20084;-64
2023/12/30 04:08:59;;;;;;;5.97;1.23;;;;;;;;;;5092606;28;20032;-65
2023/12/30 04:11:25;;;;;;;4.57;1.45;;;;;;;;;;5091457;28;20028;-64
2023/12/30 04:13:51;;;;;;;4.20;1.10;;;;;;;;;;5092636;28;20036;-65
2023/12/30 04:16:18;;;;;;;5.53;0.90;;;;;;;;;;5092534;28;20149;-65
2023/12/30 04:18:44;;;;;;;3.00;0.80;;;;;;;;;;5092473;28;20032;-65
2023/12/30 04:21:10;;;;;;;3.20;1.05;;;;;;;;;;5092469;28;20047;-65
2023/12/30 04:23:36;;;;;;;3.85;1.17;;;;;;;;;;5092684;28;20055;-65
2023/12/30 04:26:02;;;;;;;3.10;0.90;;;;;;;;;;5092064;28;20059;-65
2023/12/30 04:28:28;;;;;;;;;;;;;;;;;;5093244;28;20032;-65
2023/12/30 04:30:54;;;;;;;4.20;1.20;;;;;;;;;;5092059;28;20352;-65
2023/12/30 04:33:20;;;;;;;;;;;;;;;;;;5092955;28;20035;-65
2023/12/30 04:35:46;;;;;;;2.63;0.60;;;;;;;;;;5091823;28;19908;-64
2023/12/30 04:38:12;;;;;;;;;;;;;;;;;;5091880;28;20389;-65
2023/12/30 04:40:38;;;;;;;1.63;0.50;;;;;;;;;;5093347;28;19904;-64
2023/12/30 04:43:04;;;;;;;;;;;;;;;;;;5096703;28;20028;-64
2023/12/30 04:45:30;;;;;;;4.43;0.90;;;;;;;;;;5094776;28;19904;-64
2023/12/30 04:47:56;;;;;;;3.17;0.93;;;;;;;;;;5095921;28;20020;-64
2023/12/30 04:50:23;;;;;;;;;;;;;;;;;;5096138;28;20032;-64
2023/12/30 04:52:49;;;;;;;2.22;0.50;;;;;;;;;;5095975;28;19904;-64
2023/12/30 04:55:15;;;;;;;1.77;0.40;;;;;;;;;;5095954;28;20052;-64
2023/12/30 04:57:44;;;;;;;;;;;;;;;;;;5096193;28;20496;-64
2023/12/30 05:00:10;;;;;;;2.38;0.57;;;;;;;;;;5095527;28;20357;-64
2023/12/30 05:02:36;;;;;;;3.47;1.02;;;;;;;;;;5096147;28;20020;-64
2023/12/30 05:05:02;;;;;;;2.38;0.50;;;;;;;;;;5095338;28;20093;-65
2023/12/30 05:07:28;;;;;;;2.95;0.80;;;;;;;;;;5095704;28;20073;-64
2023/12/30 05:09:54;;;;;;;4.32;0.80;;;;;;;;;;5095490;28;20028;-63
2023/12/30 05:12:21;;;;;;;8.15;1.02;;;;;;;;;;5095759;28;20024;-63
2023/12/30 05:14:46;;;;;;;;;;;;;;;;;;5095481;28;20047;-62
2023/12/30 05:17:13;;;;;;;3.45;0.60;;;;;;;;;;5095746;28;20369;-62
2023/12/30 05:19:38;;;;;;;;;;;;;;;;;;5095631;28;20382;-64
2023/12/30 05:22:05;;;;;;;3.08;0.45;;;;;;;;;;5095032;28;19915;-64
2023/12/30 05:24:31;;;;;;;;;;;;;;;;;;5094518;28;20032;-63
2023/12/30 05:26:57;;;;;;;4.35;1.30;;;;;;;;;;5095365;28;19990;-63
2023/12/30 05:29:23;;;;;;;6.72;0.98;;;;;;;;;;5094989;28;20396;-63
2023/12/30 05:31:49;;;;;;;6.15;0.70;;;;;;;;;;5094970;28;20028;-63
2023/12/30 05:34:15;;;;;;;2.78;0.93;;;;;;;;;;5087841;28;20043;-63
2023/12/30 05:36:41;;;;;;;;;;;;;;;;;;5093954;28;20390;-65
2023/12/30 05:39:07;;;;;;;4.32;0.80;;;;;;;;;;5094378;28;19914;-64
2023/12/30 05:41:33;;;;;;;3.40;0.70;;;;;;;;;;5095465;28;20040;-64
2023/12/30 05:43:59;;;;;;;3.08;0.80;;;;;;;;;;5094911;28;20354;-65
2023/12/30 05:46:26;;;;;;;9.27;0.85;;;;;;;;;;5090305;28;20028;-65
2023/12/30 05:48:52;;;;;;;9.52;1.08;;;;;;;;;;5087105;28;20036;-66
2023/12/30 05:51:18;;;;;;;;;;;;;;;;;;5095302;28;20063;-65
2023/12/30 05:53:44;;;;;;;2.80;0.63;;;;;;;;;;5094406;28;20368;-64
2023/12/30 05:56:10;;;;;;;7.85;0.95;;;;;;;;;;5094742;28;20028;-65
2023/12/30 05:58:37;;;;;;;6.60;0.82;;;;;;;;;;5094563;28;20103;-65
2023/12/30 06:01:04;;;;;;;5.85;0.60;;;;;;;;;;5093142;28;20070;-64
2023/12/30 06:03:29;;;;;;;;;;;;;;;;;;5095158;28;20028;-63
2023/12/30 06:05:56;;;;;;;4.20;1.00;;;;;;;;;;5094831;28;19973;-64
2023/12/30 06:08:22;;;;;;;4.13;0.90;;;;;;;;;;5094513;28;20028;-63
2023/12/30 06:10:49;;;;;;;2.90;0.70;;;;;;;;;;5094919;28;20024;-61
2023/12/30 06:13:15;;;;;;;8.00;1.20;;;;;;;;;;5094434;28;20154;-63
2023/12/30 06:15:42;;;;;;;2.97;0.63;;;;;;;;;;5092491;28;20067;-64
2023/12/30 06:18:07;;;;;;;;;;;;;;;;;;5093578;28;20354;-64
2023/12/30 06:20:33;;;;;;;1.60;0.57;;;;;;;;;;5094453;28;19911;-64
2023/12/30 06:22:59;;;;;;;4.45;0.82;;;;;;;;;;5094353;28;20032;-65
2023/12/30 06:25:25;;;;;;;4.30;0.93;;;;;;;;;;5094028;28;20107;-65
2023/12/30 06:27:52;;;;;;;4.18;0.88;;;;;;;;;;5094057;28;20508;-62
2023/12/30 06:30:18;;;;;;;;;;;;;;;;;;5083874;28;20036;-65
2023/12/30 06:32:44;;;;;;;5.07;1.10;;;;;;;;;;5094446;28;19911;-65
2023/12/30 06:35:10;;;;;;;4.20;0.90;;;;;;;;;;5093857;28;20063;-65
2023/12/30 06:37:36;;;;;;;1.95;0.65;;;;;;;;;;5094178;28;20032;-65
2023/12/30 06:40:02;;;;;;;3.05;0.60;;;;;;;;;;5093668;28;20027;-65
2023/12/30 06:42:28;;;;;;;5.15;0.73;;;;;;;;;;5093573;28;20028;-65
2023/12/30 06:44:54;;;;;;;4.05;0.60;;;;;;;;;;5093486;28;20085;-64
2023/12/30 06:47:20;;;;;;;3.92;0.47;;;;;;;;;;5093758;28;20496;-65
2023/12/30 06:49:46;;;;;;;2.92;0.68;;;;;;;;;;5094123;28;20035;-66
2023/12/30 06:52:12;;;;;;;2.88;0.60;;;;;;;;;;5093466;28;20459;-65
2023/12/30 06:54:40;;;;;;;5.07;1.10;;;;;;;;;;5092594;28;20412;-64
2023/12/30 06:57:06;;;;;;;2.45;0.50;;;;;;;;;;5092264;28;20031;-65
2023/12/30 06:59:34;;;;;;;1.65;0.90;;;;;;;;;;5093370;28;20028;-64
2023/12/30 07:02:00;;;;;;;2.63;0.57;;;;;;;;;;5092553;28;20032;-63
2023/12/30 07:04:27;;;;;;;2.17;0.60;;;;;;;;;;5083992;28;20033;-63
2023/12/30 07:06:53;;;;;;;9.00;0.80;;;;;;;;;;5093669;28;20389;-65
2023/12/30 07:09:20;;;;;;;5.80;0.82;;;;;;;;;;5093095;28;20130;-64
2023/12/30 07:11:46;;;;;;;8.93;1.40;;;;;;;;;;5081328;28;20028;-64
2023/12/30 07:14:12;;;;;;;4.65;0.88;;;;;;;;;;5093258;28;20529;-64
2023/12/30 07:16:38;;;;;;;6.93;0.73;;;;;;;;;;5093500;28;20035;-65
2023/12/30 07:19:04;;;;;;;5.65;1.10;;;;;;;;;;5092978;28;20028;-64
2023/12/30 07:21:30;;;;;;;8.50;1.73;;;;;;;;;;5093344;28;20028;-64
2023/12/30 07:23:56;;;;;;;4.88;0.73;;;;;;;;;;5083118;28;20040;-64
2023/12/30 07:26:22;;;;;;;4.57;0.75;;;;;;;;;;5078695;28;20082;-65
2023/12/30 07:28:48;;;;;;;;;;;;;;;;;;5091287;28;20069;-64
2023/12/30 07:31:15;;;;;;;3.28;0.73;;;;;;;;;;5083224;28;19904;-64
2023/12/30 07:33:41;;;;;;;5.40;0.90;;;;;;;;;;5091794;28;20078;-64
2023/12/30 07:36:07;;;;;;;;;;;;;;;;;;5093311;28;20024;-64
2023/12/30 07:38:34;;;;;;;4.28;0.60;;;;;;;;;;5092802;28;19943;-64
2023/12/30 07:41:00;;;;;;;;;;;;;;;;;;5093165;28;20056;-64
2023/12/30 07:43:26;;;;;;;3.65;0.93;;;;;;;;;;5090242;28;19916;-64
2023/12/30 07:45:52;;;;;;;5.82;0.65;;;;;;;;;;5090789;28;20020;-64
2023/12/30 07:48:18;;;;;;;;;;;;;;;;;;5091424;28;20040;-64
2023/12/30 07:50:44;;;;;;;2.00;0.60;;;;;;;;;;5092474;28;19904;-65
2023/12/30 07:53:10;;;;;;;2.70;0.50;;;;;;;;;;5092599;28;20055;-64
2023/12/30 07:55:36;;;;;;;2.20;0.40;;;;;;;;;;5081244;28;20056;-66
2023/12/30 07:58:02;;;;;;;6.88;0.93;;;;;;;;;;5092771;28;20111;-63
2023/12/30 08:00:28;;;;;;;0.65;0.20;;;;;;;;;;5092848;28;20020;-64
2023/12/30 08:02:54;;;;;;;3.55;0.50;;;;;;;;;;5092510;28;20043;-64
2023/12/30 08:05:20;;;;;;;5.53;0.57;;;;;;;;;;5091568;28;20111;-64
2023/12/30 08:07:46;;;;;;;6.15;0.40;;;;;;;;;;5091994;28;20040;-63
2023/12/30 08:10:12;;;;;;;1.42;0.35;;;;;;;;;;5092452;28;20024;-63
2023/12/30 08:12:39;;;;;;;3.70;0.63;;;;;;;;;;5092755;28;20112;-63
2023/12/30 08:15:05;;;;;;;3.75;1.02;;;;;;;;;;5092792;28;20074;-63
2023/12/30 08:17:31;;;;;;;1.35;0.50;;;;;;;;;;5096174;28;20497;-63
2023/12/30 08:19:57;;;;;;;1.05;0.28;;;;;;;;;;5091478;28;20025;-64
2023/12/30 08:22:23;;;;;;;;;;;;;;;;;;5096829;28;20426;-63
2023/12/30 08:24:51;;;;;;;2.72;0.38;;;;;;;;;;5096899;28;19908;-64
2023/12/30 08:27:17;;;;;;;2.28;0.38;;;;;;;;;;5096039;28;20024;-63
2023/12/30 08:29:43;;;;;;;3.90;0.47;;;;;;;;;;5096427;28;20044;-64
2023/12/30 08:32:09;;;;;;;1.35;0.35;;;;;;;;;;5094953;28;20016;-63
2023/12/30 08:34:35;;;;;;;1.67;0.28;;;;;;;;;;5095979;28;20081;-64
2023/12/30 08:37:08;;;;;;;1.80;0.20;;;;;;;;;;5096356;28;20032;-64
2023/12/30 08:39:34;;;;;;;4.18;0.43;;;;;;;;;;5096358;28;20028;-64
2023/12/30 08:42:01;;;;;;;2.45;0.30;;;;;;;;;;5096465;28;20073;-64
2023/12/30 08:44:27;;;;;;;2.25;0.55;;;;;;;;;;5085743;28;20056;-64
2023/12/30 08:46:53;;;;;;;2.20;0.65;;;;;;;;;;5092916;28;20021;-64
2023/12/30 08:49:19;;;;;;;4.88;0.70;;;;;;;;;;5096015;28;20020;-64
2023/12/30 08:51:45;;;;;;;2.40;0.47;;;;;;;;;;5096380;28;20042;-65
2023/12/30 08:54:11;;;;;;;4.03;0.57;;;;;;;;;;5095366;28;20118;-65
2023/12/30 08:56:37;;;;;;;1.63;0.50;;;;;;;;;;5095683;28;20058;-65
2023/12/30 08:59:03;;;;;;;11.88;0.73;;;;;;;;;;5096255;28;20057;-65
2023/12/30 09:01:29;;;;;;;;;;;;;;;;;;5094837;28;20495;-64
2023/12/30 09:03:55;;;;;;;1.92;0.47;;;;;;;;;;5096223;28;19944;-65
2023/12/30 09:06:21;;;;;;;;;;;;;;;;;;5095859;28;20411;-65
2023/12/30 09:08:47;;;;;;;2.22;0.30;;;;;;;;;;5095586;28;19904;-65
2023/12/30 09:11:23;;;;;;;1.45;0.30;;;;;;;;;;5095179;28;20028;-65
2023/12/30 09:13:51;;;;;;;4.50;0.43;;;;;;;;;;5095533;28;20039;-65
2023/12/30 09:16:17;;;;;;;3.67;0.35;;;;;;;;;;5094542;28;20111;-65
2023/12/30 09:18:43;;;;;;;2.30;0.70;;;;;;;;;;5094745;28;20089;-65
2023/12/30 09:21:09;;;;;;;3.55;0.40;;;;;;;;;;5095614;28;20103;-65
2023/12/30 09:23:36;;;;;;;;;;;;;;;;;;5095887;28;20039;-65
2023/12/30 09:26:03;;;;;;;1.27;0.20;;;;;;;;;;5093485;28;20281;-65
2023/12/30 09:28:29;;;;;;;3.58;0.50;;;;;;;;;;5095697;28;20389;-64
2023/12/30 09:30:55;;;;;;;2.22;0.63;;;;;;;;;;5095517;28;20046;-65
2023/12/30 09:33:21;;;;;;;6.93;0.65;;;;;;;;;;5095320;28;20032;-64
2023/12/30 09:35:47;;;;;;;1.95;0.30;;;;;;;;;;5095154;28;20119;-64
2023/12/30 09:38:13;;;;;;;3.13;0.40;;;;;;;;;;5095860;28;20518;-64
2023/12/30 09:40:39;;;;;;;;;;;;;;;;;;5095362;28;20458;-64
2023/12/30 09:43:05;;;;;;;1.80;0.40;;;;;;;;;;5095554;28;19904;-64
2023/12/30 09:45:33;;;;;;;;;;;;;;;;;;5095320;28;20027;-64
2023/12/30 09:48:00;;;;;;;2.85;0.40;;;;;;;;;;5093982;28;20265;-64
2023/12/30 09:50:27;;;;;;;1.52;0.30;;;;;;;;;;5093068;28;20456;-64
2023/12/30 09:52:53;;;;;;;2.13;0.40;;;;;;;;;;5095067;28;20480;-64
2023/12/30 09:55:19;;;;;;;5.60;0.50;;;;;;;;;;5094680;28;20098;-63
2023/12/30 09:57:46;;;;;;;4.68;0.50;;;;;;;;;;5095158;28;20028;-63
2023/12/30 10:00:16;;;;;;;2.35;0.30;;;;;;;;;;5094799;28;20020;-63
2023/12/30 10:02:43;;;;;;;3.70;0.70;;;;;;;;;;5095168;28;20099;-63
2023/12/30 10:05:09;;;;;;;1.13;0.30;;;;;;;;;;5085811;28;20029;-63
2023/12/30 10:07:36;;;;;;;19.15;1.13;;;;;;;;;;5088072;28;20024;-64
2023/12/30 10:10:02;;;;;;;13.73;1.00;;;;;;;;;;5093531;28;20024;-64
2023/12/30 10:12:28;;;;;;;4.50;0.85;;;;;;;;;;5078394;28;20484;-62
2023/12/30 10:14:54;;;;;;;3.72;0.73;;;;;;;;;;5084679;28;20036;-65
2023/12/30 10:17:20;;;;;;;7.75;0.82;;;;;;;;;;5084307;28;20077;-66
2023/12/30 10:19:46;;;;;;;14.15;1.83;;;;;;;;;;5090005;28;20032;-67
2023/12/30 10:22:12;;;;;;;4.50;0.90;;;;;;;;;;5087558;28;20032;-66
2023/12/30 10:24:38;;;;;;;7.32;1.15;;;;;;;;;;5086991;28;20117;-66
2023/12/30 10:27:05;;;;;;;6.35;0.90;;;;;;;;;;5088827;28;20031;-64
2023/12/30 10:29:31;;;;;;;;;;;;;;;;;;5087016;28;20024;-65
2023/12/30 10:32:00;;;;;;;3.47;0.90;;;;;;;;;;5089525;28;19915;-65
2023/12/30 10:34:27;;;;;;;7.03;0.88;;;;;;;;;;5093595;28;20086;-66
2023/12/30 10:36:53;;;;;;;3.10;0.60;;;;;;;;;;5084483;28;20106;-65
2023/12/30 10:39:22;;;;;;;3.13;0.68;;;;;;;;;;5083652;28;20504;-66
2023/12/30 10:41:48;;;;;;;4.47;0.65;;;;;;;;;;5082302;28;20485;-66
2023/12/30 10:44:14;;;;;;;;;;;;;;;;;;5092939;28;20035;-66
2023/12/30 10:46:41;;;;;;;6.75;1.25;;;;;;;;;;5092220;28;19916;-66
2023/12/30 10:49:09;;;;;;;4.03;1.02;;;;;;;;;;5093590;28;20085;-66
2023/12/30 10:51:35;;;;;;;1.33;0.47;;;;;;;;;;5088222;28;20028;-66
2023/12/30 10:54:05;;;;;;;5.35;0.73;;;;;;;;;;5093683;28;20104;-68
2023/12/30 10:56:39;;;;;;;2.85;0.50;;;;;;;;;;5081412;28;20024;-66
2023/12/30 10:59:06;;;;;;;3.40;0.47;;;;;;;;;;5090263;28;20390;-66
2023/12/30 11:01:33;;;;;;;2.08;0.35;;;;;;;;;;5091819;28;20024;-66
2023/12/30 11:04:01;;;;;;;2.08;0.40;;;;;;;;;;5091152;28;20032;-65
2023/12/30 11:06:37;;;;;;;3.10;0.52;;;;;;;;;;5090035;28;20420;-65
2023/12/30 11:09:09;;;;;;;6.87;0.90;;;;;;;;;;5082529;28;20039;-66
2023/12/30 11:11:39;;;;;;;3.10;0.40;;;;;;;;;;5090763;28;20082;-66
2023/12/30 11:14:15;;;;;;;2.28;0.28;;;;;;;;;;5090312;28;20428;-66
2023/12/30 11:16:41;;;;;;;2.85;0.52;;;;;;;;;;5092986;28;20030;-66
2023/12/30 11:19:07;;;;;;;;;;;;;;;;;;5082890;28;20437;-66
2023/12/30 11:21:48;;;;;;;2.55;0.32;;;;;;;;;;5091246;28;19939;-66
2023/12/30 11:24:17;;;;;;;2.78;0.43;;;;;;;;;;5090448;28;20043;-64
2023/12/30 11:26:45;;;;;;;4.05;0.70;;;;;;;;;;5090598;28;20031;-65
2023/12/30 11:29:12;;;;;;;1.88;0.40;;;;;;;;;;5089592;28;20016;-66
2023/12/30 11:31:40;;;;;;;4.65;0.52;;;;;;;;;;5089648;28;20111;-65
2023/12/30 11:34:06;;;;;;;5.03;0.80;;;;;;;;;;5090841;28;20020;-65
2023/12/30 11:36:32;;;;;;;;;;;;;;;;;;5083980;28;20039;-65
2023/12/30 11:38:59;;;;;;;2.33;0.57;;;;;;;;;;5086124;28;19908;-65
2023/12/30 11:41:26;;;;;;;10.57;0.80;;;;;;;;;;5091957;28;20099;-65
2023/12/30 11:43:53;;;;;;;1.02;0.30;;;;;;;;;;5091264;28;20050;-65
2023/12/30 11:46:19;;;;;;;1.48;0.50;;;;;;;;;;5090727;28;20377;-65
2023/12/30 11:48:45;;;;;;;;;;;;;;;;;;5088287;28;20024;-65
2023/12/30 11:51:19;;;;;;;2.15;0.52;;;;;;;;;;5085245;28;19915;-66
2023/12/30 11:53:45;;;;;;;2.03;0.45;;;;;;;;;;5090368;28;20238;-66
2023/12/30 11:56:11;;;;;;;;;;;;;;;;;;5083394;28;20044;-66
2023/12/30 11:58:37;;;;;;;2.70;0.50;;;;;;;;;;5087596;28;19908;-65
2023/12/30 12:01:03;;;;;;;;;;;;;;;;;;5091879;28;20473;-65
2023/12/30 12:03:29;;;;;;;2.17;0.50;;;;;;;;;;5092777;28;19948;-66
2023/12/30 12:05:55;;;;;;;;;;;;;;;;;;5084713;28;20389;-66
2023/12/30 12:08:22;;;;;;;0.95;0.30;;;;;;;;;;5090049;28;19916;-65
2023/12/30 12:10:48;;;;;;;3.60;0.47;;;;;;;;;;5085781;28;20035;-66
2023/12/30 12:13:24;;;;;;;1.70;0.60;;;;;;;;;;5089460;28;20024;-65
2023/12/30 12:15:50;;;;;;;2.25;0.55;;;;;;;;;;5091483;28;20531;-65
2023/12/30 12:18:17;;;;;;;1.05;0.32;;;;;;;;;;5092636;28;20099;-64
2023/12/30 12:20:45;;;;;;;1.58;0.40;;;;;;;;;;5085955;28;20039;-63
2023/12/30 12:23:11;;;;;;;0.73;0.28;;;;;;;;;;5084349;28;20021;-65
2023/12/30 12:25:37;;;;;;;;;;;;;;;;;;5091850;28;20051;-65
2023/12/30 12:28:09;;;;;;;2.83;0.40;;;;;;;;;;5086728;28;20361;-65
2023/12/30 12:30:35;;;;;;;2.88;0.70;;;;;;;;;;5090238;28;20028;-62
2023/12/30 12:33:01;;;;;;;;;;;;;;;;;;5088022;28;20103;-66
2023/12/30 12:35:27;;;;;;;1.65;0.40;;;;;;;;;;5091510;28;19911;-66
2023/12/30 12:37:53;;;;;;;;;;;;;;;;;;5091572;28;20097;-66
2023/12/30 12:40:19;;;;;;;3.08;0.50;;;;;;;;;;5092081;28;19912;-65
2023/12/30 12:42:45;;;;;;;3.28;0.70;;;;;;;;;;5083111;28;20102;-66
2023/12/30 12:45:11;;;;;;;;;;;;;;;;;;5088807;28;20107;-66
2023/12/30 12:47:37;;;;;;;0.88;0.32;;;;;;;;;;5083049;28;19908;-64
2023/12/30 12:50:04;;;;;;;;;;;;;;;;;;5089093;28;20486;-65
2023/12/30 12:52:30;;;;;;;0.93;0.32;;;;;;;;;;5083149;28;20269;-66
2023/12/30 12:54:56;;;;;;;;;;;;;;;;;;5088993;28;20132;-66
2023/12/30 12:57:23;;;;;;;2.60;0.50;;;;;;;;;;5091492;28;20376;-66
2023/12/30 12:59:49;;;;;;;3.25;0.63;;;;;;;;;;5091763;28;20383;-66
2023/12/30 13:02:16;;;;;;;;;;;;;;;;;;5094813;28;20020;-66
2023/12/30 13:04:42;;;;;;;1.40;0.38;;;;;;;;;;5095339;28;20349;-66
2023/12/30 13:07:08;;;;;;;1.10;0.30;;;;;;;;;;5096059;28;20078;-66
2023/12/30 13:09:36;;;;;;;3.33;0.73;;;;;;;;;;5090518;28;20086;-66
2023/12/30 13:12:04;;;;;;;2.50;0.50;;;;;;;;;;5087752;28;20028;-65
2023/12/30 13:14:30;;;;;;;2.50;0.50;;;;;;;;;;5094882;28;20112;-66
2023/12/30 13:16:57;;;;;;;1.73;0.38;;;;;;;;;;5093035;28;20025;-67
2023/12/30 13:19:23;;;;;;;3.70;0.50;;;;;;;;;;5089668;28;20039;-66
2023/12/30 13:21:50;;;;;;;2.50;0.55;;;;;;;;;;5094040;28;20488;-66
2023/12/30 13:24:17;;;;;;;4.05;0.50;;;;;;;;;;5094576;28;20028;-66
2023/12/30 13:26:43;;;;;;;2.10;0.50;;;;;;;;;;5095169;28;20460;-66
2023/12/30 13:29:11;;;;;;;1.52;0.45;;;;;;;;;;5094153;28;20031;-66
2023/12/30 13:31:37;;;;;;;5.05;0.82;;;;;;;;;;5095594;28;20453;-66
2023/12/30 13:34:05;;;;;;;2.78;0.50;;;;;;;;;;5093052;28;20043;-69
2023/12/30 13:36:33;;;;;;;4.07;0.63;;;;;;;;;;5095463;28;20024;-66
2023/12/30 13:39:13;;;;;;;3.70;0.60;;;;;;;;;;5094318;28;20070;-66
2023/12/30 13:41:39;;;;;;;1.65;0.57;;;;;;;;;;5091206;28;20369;-66
2023/12/30 13:44:15;;;;;;;1.63;0.43;;;;;;;;;;5094525;28;20012;-66
2023/12/30 13:51:36;;;;;;;;;;;;;;;;;;5095378;28;20032;-67
2023/12/30 13:54:03;;;;;;;2.30;0.52;;;;;;;;;;5093767;28;19924;-66
2023/12/30 13:56:35;;;;;;;1.33;0.30;;;;;;;;;;5094974;28;20020;-66
2023/12/30 13:59:04;;;;;;;5.47;0.88;;;;;;;;;;5091605;28;20028;-66
2023/12/30 14:01:32;;;;;;;4.13;0.40;;;;;;;;;;5086182;28;20039;-63
2023/12/30 14:03:58;;;;;;;2.38;0.75;;;;;;;;;;5090144;28;20021;-65
2023/12/30 14:06:32;;;;;;;;;;;;;;;;;;5081018;28;20098;-66
2023/12/30 14:09:00;;;;;;;2.45;0.70;;;;;;;;;;5079909;28;19915;-65
2023/12/30 14:11:45;;;;;;;5.10;0.75;;;;;;;;;;5093003;28;20107;-65
2023/12/30 14:14:11;;;;;;;3.17;0.73;;;;;;;;;;5091926;28;20040;-65
2023/12/30 14:16:38;;;;;;;3.17;0.90;;;;;;;;;;5092950;28;20032;-58
2023/12/30 14:19:04;;;;;;;6.75;0.80;;;;;;;;;;5092416;28;20032;-65
2023/12/30 14:22:27;;;;;;;3.03;0.80;;;;;;;;;;5126008;27;20389;-68
2023/12/30 14:24:53;;;;;;;;;;;;;;;;;;5104893;28;20055;-65
2023/12/30 14:27:20;;;;;;;3.88;1.00;;;;;;;;;;5097416;28;20391;-64
2023/12/30 14:29:48;;;;;;;11.10;1.08;;;;;;;;;;5105880;28;20016;-65
2023/12/30 14:32:14;;;;;;;8.02;0.90;;;;;;;;;;5106829;28;20047;-67
2023/12/30 14:34:43;;;;;;;4.50;0.80;;;;;;;;;;5107970;28;20024;-68
2023/12/30 14:37:10;;;;;;;3.83;0.77;;;;;;;;;;5104956;28;20055;-68
2023/12/30 14:39:37;;;;;;;3.10;0.68;;;;;;;;;;5109683;28;20036;-68
2023/12/30 14:42:03;;;;;;;8.52;1.25;;;;;;;;;;5109494;28;20055;-71
2023/12/30 14:44:29;;;;;;;;;;;;;;;;;;5095135;28;20151;-72
2023/12/30 14:46:55;;;;;;;4.88;1.00;;;;;;;;;;5105289;28;19911;-73
2023/12/30 14:49:21;;;;;;;;;;;;;;;;;;5110581;28;20024;-74
2023/12/30 14:51:47;;;;;;;8.30;1.40;;;;;;;;;;5107949;28;20053;-72
2023/12/30 14:54:13;;;;;;;19.17;7.65;;;;;;;;;;5108921;28;20024;-73
2023/12/30 14:56:40;;;;;;;28.10;10.90;;;;;;;;;;5109662;28;20031;-74
2023/12/30 14:59:06;;;;;;;37.40;13.63;;;;;;;;;;5109727;28;20024;-73
2023/12/30 15:01:32;;;;;;;;;;;;;;;;;;5090400;28;21156;-74
2023/12/30 15:04:01;;;;;;;61.63;21.58;;;;;;;;;;5091369;28;20335;-73
2023/12/30 15:06:29;;;;;;;75.47;30.27;;;;;;;;;;5107386;28;20465;-73